Kezdőlap
METAR-TAF:

METAR-TAF

Repülőterek :

Illinois Valley Regional Airport (Walter A. Duncan Field)

Peru-LaSalle, Illinois, Amerikai Egyesült Államok

földrajzi szélesség: 41-21-07N, földrajzi hosszúság: 089-09-11W, magasság: 199 m

Jelenlegi meteorológiai megfigyelések

A jelentés 31 perccel ezelõtt készült, 10:35 UTC
Dél-délnyugati szél 7 kt
Hőmérséklet 7°C
Páratartalom 93%
Légköri nyomás 1002 hPa
Látótávolság: 3.2 km
Borult 500 lábon
Párásság

METAR: KVYS 091035Z AUTO 21007KT 2SM BR OVC005 07/06 A2959 RMK AO2 T00650060

Idő: 05:06 (11:06 UTC)


TAF: hiányzik

Meteorológiai megfigyelések és előrejelzések több, mint 4000 repülőtéren (METAR és TAF jelentéseket).

A térképen piros és sárga pontok jelzik az elérhető meteorológiai állomásokat.

Mozgassa az egeret a pont fölött, hogy megjelenjen az állomás neve.

Azután kattintson az időjárási megfigyelések és előrejelzések megtekintéséhez.

A térkép megváltoztatása: kattintson a fekete keresztel jelölt zöld gombra ráközelítéshez, a vonallal jelölt zöld gombra távolításhoz, vagy a zöld nyilakra a szomszédos térképek eléréséhez.


METAR-TAF: